sensor_id;sensor_type;location;lat;lon;timestamp;P1;durP1;ratioP1;P2;durP2;ratioP2
20417;SDS011;10368;51.436;6.774;2023-12-28T00:02:16;2.60;;;1.60;;
20417;SDS011;10368;51.436;6.774;2023-12-28T00:04:42;2.90;;;1.90;;
20417;SDS011;10368;51.436;6.774;2023-12-28T00:07:09;3.80;;;2.10;;
20417;SDS011;10368;51.436;6.774;2023-12-28T00:09:36;3.10;;;1.87;;
20417;SDS011;10368;51.436;6.774;2023-12-28T00:12:03;4.37;;;2.03;;
20417;SDS011;10368;51.436;6.774;2023-12-28T00:14:31;2.57;;;1.97;;
20417;SDS011;10368;51.436;6.774;2023-12-28T00:16:58;2.97;;;2.17;;
20417;SDS011;10368;51.436;6.774;2023-12-28T00:19:25;3.23;;;1.93;;
20417;SDS011;10368;51.436;6.774;2023-12-28T00:21:52;2.40;;;2.03;;
20417;SDS011;10368;51.436;6.774;2023-12-28T00:24:19;2.37;;;1.77;;
20417;SDS011;10368;51.436;6.774;2023-12-28T00:26:48;2.57;;;2.23;;
20417;SDS011;10368;51.436;6.774;2023-12-28T00:29:15;2.10;;;1.90;;
20417;SDS011;10368;51.436;6.774;2023-12-28T00:31:41;3.00;;;1.90;;
20417;SDS011;10368;51.436;6.774;2023-12-28T00:34:08;3.23;;;2.10;;
20417;SDS011;10368;51.436;6.774;2023-12-28T00:36:36;2.77;;;2.00;;
20417;SDS011;10368;51.436;6.774;2023-12-28T00:39:03;3.53;;;2.47;;
20417;SDS011;10368;51.436;6.774;2023-12-28T00:41:29;3.37;;;2.43;;
20417;SDS011;10368;51.436;6.774;2023-12-28T00:43:56;2.60;;;2.00;;
20417;SDS011;10368;51.436;6.774;2023-12-28T00:46:23;4.17;;;2.50;;
20417;SDS011;10368;51.436;6.774;2023-12-28T00:48:50;2.37;;;1.90;;
20417;SDS011;10368;51.436;6.774;2023-12-28T00:51:17;3.37;;;2.33;;
20417;SDS011;10368;51.436;6.774;2023-12-28T00:53:44;4.03;;;2.87;;
20417;SDS011;10368;51.436;6.774;2023-12-28T00:56:11;5.53;;;3.23;;
20417;SDS011;10368;51.436;6.774;2023-12-28T00:58:41;5.33;;;3.87;;
20417;SDS011;10368;51.436;6.774;2023-12-28T01:01:10;7.93;;;3.70;;
20417;SDS011;10368;51.436;6.774;2023-12-28T01:03:37;7.17;;;3.83;;
20417;SDS011;10368;51.436;6.774;2023-12-28T01:06:04;6.60;;;3.70;;
20417;SDS011;10368;51.436;6.774;2023-12-28T01:08:32;4.70;;;3.27;;
20417;SDS011;10368;51.436;6.774;2023-12-28T01:11:01;3.13;;;2.70;;
20417;SDS011;10368;51.436;6.774;2023-12-28T01:13:29;3.93;;;3.10;;
20417;SDS011;10368;51.436;6.774;2023-12-28T01:15:57;3.33;;;2.80;;
20417;SDS011;10368;51.436;6.774;2023-12-28T01:18:24;4.17;;;3.20;;
20417;SDS011;10368;51.436;6.774;2023-12-28T01:20:51;4.10;;;2.67;;
20417;SDS011;10368;51.436;6.774;2023-12-28T01:23:18;3.67;;;2.60;;
20417;SDS011;10368;51.436;6.774;2023-12-28T01:25:45;3.93;;;2.80;;
20417;SDS011;10368;51.436;6.774;2023-12-28T01:28:12;3.97;;;2.43;;
20417;SDS011;10368;51.436;6.774;2023-12-28T01:30:39;3.07;;;2.20;;
20417;SDS011;10368;51.436;6.774;2023-12-28T01:33:06;7.17;;;2.40;;
20417;SDS011;10368;51.436;6.774;2023-12-28T01:35:33;3.03;;;2.20;;
20417;SDS011;10368;51.436;6.774;2023-12-28T01:38:01;3.00;;;1.90;;
20417;SDS011;10368;51.436;6.774;2023-12-28T01:40:29;3.60;;;1.90;;
20417;SDS011;10368;51.436;6.774;2023-12-28T01:42:56;4.57;;;2.47;;
20417;SDS011;10368;51.436;6.774;2023-12-28T01:45:23;3.10;;;2.00;;
20417;SDS011;10368;51.436;6.774;2023-12-28T01:47:50;2.77;;;2.30;;
20417;SDS011;10368;51.436;6.774;2023-12-28T01:50:18;2.93;;;2.30;;
20417;SDS011;10368;51.436;6.774;2023-12-28T01:52:48;4.90;;;2.07;;
20417;SDS011;10368;51.436;6.774;2023-12-28T01:55:16;3.83;;;2.20;;
20417;SDS011;10368;51.436;6.774;2023-12-28T01:57:43;2.20;;;1.93;;
20417;SDS011;10368;51.436;6.774;2023-12-28T02:00:11;4.10;;;2.30;;
20417;SDS011;10368;51.436;6.774;2023-12-28T02:02:39;2.73;;;2.27;;
20417;SDS011;10368;51.436;6.774;2023-12-28T02:05:08;2.97;;;2.20;;
20417;SDS011;10368;51.436;6.774;2023-12-28T02:07:38;3.93;;;1.67;;
20417;SDS011;10368;51.436;6.774;2023-12-28T02:10:06;2.47;;;2.17;;
20417;SDS011;10368;51.436;6.774;2023-12-28T02:12:33;3.67;;;2.10;;
20417;SDS011;10368;51.436;6.774;2023-12-28T02:15:01;3.67;;;2.03;;
20417;SDS011;10368;51.436;6.774;2023-12-28T02:20:10;3.27;;;2.13;;
20417;SDS011;10368;51.436;6.774;2023-12-28T02:22:39;3.13;;;1.90;;
20417;SDS011;10368;51.436;6.774;2023-12-28T02:25:10;2.77;;;2.13;;
20417;SDS011;10368;51.436;6.774;2023-12-28T02:30:07;2.77;;;2.10;;
20417;SDS011;10368;51.436;6.774;2023-12-28T02:33:21;2.60;;;2.40;;
20417;SDS011;10368;51.436;6.774;2023-12-28T02:35:50;4.40;;;2.63;;
20417;SDS011;10368;51.436;6.774;2023-12-28T02:38:21;2.83;;;2.30;;
20417;SDS011;10368;51.436;6.774;2023-12-28T02:40:50;5.43;;;2.70;;
20417;SDS011;10368;51.436;6.774;2023-12-28T02:43:18;3.80;;;2.53;;
20417;SDS011;10368;51.436;6.774;2023-12-28T02:45:45;5.63;;;2.40;;
20417;SDS011;10368;51.436;6.774;2023-12-28T02:48:12;10.53;;;2.07;;
20417;SDS011;10368;51.436;6.774;2023-12-28T02:50:40;3.20;;;2.30;;
20417;SDS011;10368;51.436;6.774;2023-12-28T02:53:07;4.93;;;2.53;;
20417;SDS011;10368;51.436;6.774;2023-12-28T02:55:33;2.90;;;2.37;;
20417;SDS011;10368;51.436;6.774;2023-12-28T02:58:00;2.30;;;1.80;;
20417;SDS011;10368;51.436;6.774;2023-12-28T03:00:28;2.23;;;2.03;;
20417;SDS011;10368;51.436;6.774;2023-12-28T03:02:56;2.73;;;1.80;;
20417;SDS011;10368;51.436;6.774;2023-12-28T03:05:23;2.67;;;2.20;;
20417;SDS011;10368;51.436;6.774;2023-12-28T03:07:50;3.63;;;2.07;;
20417;SDS011;10368;51.436;6.774;2023-12-28T03:10:17;2.57;;;2.20;;
20417;SDS011;10368;51.436;6.774;2023-12-28T03:12:44;3.30;;;2.20;;
20417;SDS011;10368;51.436;6.774;2023-12-28T03:15:11;2.33;;;2.13;;
20417;SDS011;10368;51.436;6.774;2023-12-28T03:17:39;3.53;;;2.83;;
20417;SDS011;10368;51.436;6.774;2023-12-28T03:20:06;4.00;;;2.70;;
20417;SDS011;10368;51.436;6.774;2023-12-28T03:22:34;6.07;;;3.77;;
20417;SDS011;10368;51.436;6.774;2023-12-28T03:25:01;7.20;;;2.47;;
20417;SDS011;10368;51.436;6.774;2023-12-28T03:27:28;4.80;;;2.67;;
20417;SDS011;10368;51.436;6.774;2023-12-28T03:29:55;3.33;;;2.27;;
20417;SDS011;10368;51.436;6.774;2023-12-28T03:32:22;3.73;;;2.33;;
20417;SDS011;10368;51.436;6.774;2023-12-28T03:34:49;3.80;;;2.40;;
20417;SDS011;10368;51.436;6.774;2023-12-28T03:37:16;3.60;;;2.47;;
20417;SDS011;10368;51.436;6.774;2023-12-28T03:39:43;3.70;;;2.50;;
20417;SDS011;10368;51.436;6.774;2023-12-28T03:42:13;2.83;;;2.47;;
20417;SDS011;10368;51.436;6.774;2023-12-28T03:44:41;3.33;;;2.80;;
20417;SDS011;10368;51.436;6.774;2023-12-28T03:47:08;3.70;;;2.23;;
20417;SDS011;10368;51.436;6.774;2023-12-28T03:49:34;4.03;;;2.50;;
20417;SDS011;10368;51.436;6.774;2023-12-28T03:52:01;2.80;;;2.50;;
20417;SDS011;10368;51.436;6.774;2023-12-28T03:54:29;2.70;;;2.33;;
20417;SDS011;10368;51.436;6.774;2023-12-28T03:56:56;4.73;;;3.40;;
20417;SDS011;10368;51.436;6.774;2023-12-28T03:59:23;3.20;;;2.30;;
20417;SDS011;10368;51.436;6.774;2023-12-28T04:01:50;2.93;;;2.53;;
20417;SDS011;10368;51.436;6.774;2023-12-28T04:04:17;3.57;;;2.57;;
20417;SDS011;10368;51.436;6.774;2023-12-28T04:06:44;3.87;;;2.40;;
20417;SDS011;10368;51.436;6.774;2023-12-28T04:09:11;2.50;;;2.27;;
20417;SDS011;10368;51.436;6.774;2023-12-28T04:11:39;2.97;;;2.40;;
20417;SDS011;10368;51.436;6.774;2023-12-28T04:14:06;2.67;;;2.47;;
20417;SDS011;10368;51.436;6.774;2023-12-28T04:16:33;2.20;;;1.80;;
20417;SDS011;10368;51.436;6.774;2023-12-28T04:19:00;3.07;;;2.73;;
20417;SDS011;10368;51.436;6.774;2023-12-28T04:21:27;3.50;;;2.30;;
20417;SDS011;10368;51.436;6.774;2023-12-28T04:23:53;5.00;;;2.53;;
20417;SDS011;10368;51.436;6.774;2023-12-28T04:26:20;4.50;;;2.40;;
20417;SDS011;10368;51.436;6.774;2023-12-28T04:28:47;5.43;;;2.60;;
20417;SDS011;10368;51.436;6.774;2023-12-28T04:31:14;5.20;;;2.50;;
20417;SDS011;10368;51.436;6.774;2023-12-28T04:33:41;4.77;;;2.77;;
20417;SDS011;10368;51.436;6.774;2023-12-28T04:36:08;5.53;;;2.63;;
20417;SDS011;10368;51.436;6.774;2023-12-28T04:38:35;5.80;;;2.50;;
20417;SDS011;10368;51.436;6.774;2023-12-28T04:41:05;4.27;;;2.50;;
20417;SDS011;10368;51.436;6.774;2023-12-28T04:43:31;2.90;;;2.23;;
20417;SDS011;10368;51.436;6.774;2023-12-28T04:46:02;2.27;;;2.07;;
20417;SDS011;10368;51.436;6.774;2023-12-28T04:48:32;3.07;;;2.33;;
20417;SDS011;10368;51.436;6.774;2023-12-28T04:51:01;5.93;;;2.47;;
20417;SDS011;10368;51.436;6.774;2023-12-28T04:53:29;4.07;;;2.23;;
20417;SDS011;10368;51.436;6.774;2023-12-28T04:55:56;4.63;;;2.63;;
20417;SDS011;10368;51.436;6.774;2023-12-28T04:58:23;5.70;;;2.17;;
20417;SDS011;10368;51.436;6.774;2023-12-28T05:00:49;3.43;;;2.30;;
20417;SDS011;10368;51.436;6.774;2023-12-28T05:03:16;3.57;;;2.17;;
20417;SDS011;10368;51.436;6.774;2023-12-28T05:05:44;2.30;;;2.10;;
20417;SDS011;10368;51.436;6.774;2023-12-28T05:08:11;2.43;;;2.03;;
20417;SDS011;10368;51.436;6.774;2023-12-28T05:10:38;3.43;;;2.10;;
20417;SDS011;10368;51.436;6.774;2023-12-28T05:13:05;6.50;;;2.50;;
20417;SDS011;10368;51.436;6.774;2023-12-28T05:15:32;6.93;;;2.60;;
20417;SDS011;10368;51.436;6.774;2023-12-28T05:18:00;3.67;;;2.37;;
20417;SDS011;10368;51.436;6.774;2023-12-28T05:20:27;3.10;;;2.50;;
20417;SDS011;10368;51.436;6.774;2023-12-28T05:22:54;3.13;;;2.00;;
20417;SDS011;10368;51.436;6.774;2023-12-28T05:25:21;4.30;;;2.23;;
20417;SDS011;10368;51.436;6.774;2023-12-28T05:27:48;3.27;;;2.00;;
20417;SDS011;10368;51.436;6.774;2023-12-28T05:30:15;4.60;;;2.40;;
20417;SDS011;10368;51.436;6.774;2023-12-28T05:32:42;5.90;;;2.10;;
20417;SDS011;10368;51.436;6.774;2023-12-28T05:35:09;2.87;;;1.77;;
20417;SDS011;10368;51.436;6.774;2023-12-28T05:37:36;3.97;;;2.07;;
20417;SDS011;10368;51.436;6.774;2023-12-28T05:40:03;6.10;;;2.00;;
20417;SDS011;10368;51.436;6.774;2023-12-28T05:42:30;3.47;;;2.50;;
20417;SDS011;10368;51.436;6.774;2023-12-28T05:44:57;3.97;;;2.10;;
20417;SDS011;10368;51.436;6.774;2023-12-28T05:47:24;3.13;;;2.23;;
20417;SDS011;10368;51.436;6.774;2023-12-28T05:49:51;2.50;;;2.30;;
20417;SDS011;10368;51.436;6.774;2023-12-28T05:52:19;14.30;;;2.30;;
20417;SDS011;10368;51.436;6.774;2023-12-28T05:54:46;6.27;;;2.17;;
20417;SDS011;10368;51.436;6.774;2023-12-28T05:57:14;5.50;;;2.93;;
20417;SDS011;10368;51.436;6.774;2023-12-28T05:59:42;5.00;;;2.03;;
20417;SDS011;10368;51.436;6.774;2023-12-28T06:02:09;4.03;;;2.00;;
20417;SDS011;10368;51.436;6.774;2023-12-28T06:04:36;5.80;;;2.53;;
20417;SDS011;10368;51.436;6.774;2023-12-28T06:07:03;8.00;;;4.90;;
20417;SDS011;10368;51.436;6.774;2023-12-28T06:09:31;5.03;;;2.50;;
20417;SDS011;10368;51.436;6.774;2023-12-28T06:11:58;6.03;;;2.30;;
20417;SDS011;10368;51.436;6.774;2023-12-28T06:14:25;5.17;;;2.70;;
20417;SDS011;10368;51.436;6.774;2023-12-28T06:16:53;5.57;;;2.80;;
20417;SDS011;10368;51.436;6.774;2023-12-28T06:19:20;3.33;;;2.20;;
20417;SDS011;10368;51.436;6.774;2023-12-28T06:21:50;4.13;;;2.50;;
20417;SDS011;10368;51.436;6.774;2023-12-28T06:24:17;4.83;;;1.90;;
20417;SDS011;10368;51.436;6.774;2023-12-28T06:26:44;5.63;;;2.07;;
20417;SDS011;10368;51.436;6.774;2023-12-28T06:29:11;4.53;;;1.63;;
20417;SDS011;10368;51.436;6.774;2023-12-28T06:31:38;3.63;;;2.03;;
20417;SDS011;10368;51.436;6.774;2023-12-28T06:34:06;3.17;;;2.40;;
20417;SDS011;10368;51.436;6.774;2023-12-28T06:36:34;3.13;;;1.90;;
20417;SDS011;10368;51.436;6.774;2023-12-28T06:39:01;6.67;;;4.77;;
20417;SDS011;10368;51.436;6.774;2023-12-28T06:41:28;3.83;;;2.20;;
20417;SDS011;10368;51.436;6.774;2023-12-28T06:43:55;2.50;;;2.00;;
20417;SDS011;10368;51.436;6.774;2023-12-28T06:46:21;3.27;;;2.00;;
20417;SDS011;10368;51.436;6.774;2023-12-28T06:48:49;4.50;;;2.10;;
20417;SDS011;10368;51.436;6.774;2023-12-28T06:51:16;6.10;;;1.83;;
20417;SDS011;10368;51.436;6.774;2023-12-28T06:53:47;5.70;;;2.10;;
20417;SDS011;10368;51.436;6.774;2023-12-28T06:56:15;4.40;;;1.80;;
20417;SDS011;10368;51.436;6.774;2023-12-28T06:58:43;5.10;;;1.80;;
20417;SDS011;10368;51.436;6.774;2023-12-28T07:01:10;4.70;;;2.10;;
20417;SDS011;10368;51.436;6.774;2023-12-28T07:03:38;6.13;;;2.30;;
20417;SDS011;10368;51.436;6.774;2023-12-28T07:06:06;4.27;;;2.10;;
20417;SDS011;10368;51.436;6.774;2023-12-28T07:08:33;6.37;;;2.30;;
20417;SDS011;10368;51.436;6.774;2023-12-28T07:11:02;4.57;;;2.10;;
20417;SDS011;10368;51.436;6.774;2023-12-28T07:13:30;3.97;;;1.93;;
20417;SDS011;10368;51.436;6.774;2023-12-28T07:15:58;4.30;;;1.97;;
20417;SDS011;10368;51.436;6.774;2023-12-28T07:18:26;4.70;;;1.87;;
20417;SDS011;10368;51.436;6.774;2023-12-28T07:20:55;5.87;;;2.50;;
20417;SDS011;10368;51.436;6.774;2023-12-28T07:23:22;7.07;;;3.03;;
20417;SDS011;10368;51.436;6.774;2023-12-28T07:25:49;4.63;;;2.37;;
20417;SDS011;10368;51.436;6.774;2023-12-28T07:28:15;5.30;;;2.37;;
20417;SDS011;10368;51.436;6.774;2023-12-28T07:30:42;5.97;;;2.33;;
20417;SDS011;10368;51.436;6.774;2023-12-28T07:33:09;4.60;;;2.60;;
20417;SDS011;10368;51.436;6.774;2023-12-28T07:35:37;6.97;;;2.93;;
20417;SDS011;10368;51.436;6.774;2023-12-28T07:38:03;10.67;;;4.33;;
20417;SDS011;10368;51.436;6.774;2023-12-28T07:40:30;8.47;;;2.93;;
20417;SDS011;10368;51.436;6.774;2023-12-28T07:42:57;6.87;;;2.77;;
20417;SDS011;10368;51.436;6.774;2023-12-28T07:45:24;8.03;;;3.33;;
20417;SDS011;10368;51.436;6.774;2023-12-28T07:47:52;4.27;;;2.77;;
20417;SDS011;10368;51.436;6.774;2023-12-28T07:50:19;7.80;;;2.93;;
20417;SDS011;10368;51.436;6.774;2023-12-28T07:52:47;5.97;;;3.13;;
20417;SDS011;10368;51.436;6.774;2023-12-28T07:55:15;9.83;;;4.40;;
20417;SDS011;10368;51.436;6.774;2023-12-28T07:57:43;10.30;;;5.10;;
20417;SDS011;10368;51.436;6.774;2023-12-28T08:00:10;11.57;;;4.53;;
20417;SDS011;10368;51.436;6.774;2023-12-28T08:02:37;9.97;;;3.60;;
20417;SDS011;10368;51.436;6.774;2023-12-28T08:05:05;8.07;;;3.60;;
20417;SDS011;10368;51.436;6.774;2023-12-28T08:07:32;10.20;;;3.80;;
20417;SDS011;10368;51.436;6.774;2023-12-28T08:09:59;11.43;;;3.30;;
20417;SDS011;10368;51.436;6.774;2023-12-28T08:12:27;6.30;;;3.03;;
20417;SDS011;10368;51.436;6.774;2023-12-28T08:14:55;4.83;;;2.43;;
20417;SDS011;10368;51.436;6.774;2023-12-28T08:17:22;14.47;;;3.17;;
20417;SDS011;10368;51.436;6.774;2023-12-28T08:19:50;10.70;;;4.13;;
20417;SDS011;10368;51.436;6.774;2023-12-28T08:22:18;8.90;;;3.67;;
20417;SDS011;10368;51.436;6.774;2023-12-28T08:24:45;9.23;;;3.20;;
20417;SDS011;10368;51.436;6.774;2023-12-28T08:27:12;11.10;;;3.57;;
20417;SDS011;10368;51.436;6.774;2023-12-28T08:29:40;7.17;;;3.67;;
20417;SDS011;10368;51.436;6.774;2023-12-28T08:32:09;7.33;;;3.80;;
20417;SDS011;10368;51.436;6.774;2023-12-28T08:34:37;6.00;;;3.67;;
20417;SDS011;10368;51.436;6.774;2023-12-28T08:37:04;6.73;;;3.20;;
20417;SDS011;10368;51.436;6.774;2023-12-28T08:39:31;10.90;;;4.20;;
20417;SDS011;10368;51.436;6.774;2023-12-28T08:41:58;9.23;;;4.57;;
20417;SDS011;10368;51.436;6.774;2023-12-28T08:44:25;10.40;;;4.47;;
20417;SDS011;10368;51.436;6.774;2023-12-28T08:46:52;10.20;;;5.40;;
20417;SDS011;10368;51.436;6.774;2023-12-28T08:49:20;11.27;;;7.63;;
20417;SDS011;10368;51.436;6.774;2023-12-28T08:51:49;12.60;;;4.40;;
20417;SDS011;10368;51.436;6.774;2023-12-28T08:54:17;11.53;;;4.10;;
20417;SDS011;10368;51.436;6.774;2023-12-28T08:56:44;8.10;;;4.27;;
20417;SDS011;10368;51.436;6.774;2023-12-28T08:59:17;11.63;;;3.93;;
20417;SDS011;10368;51.436;6.774;2023-12-28T09:01:44;12.40;;;3.40;;
20417;SDS011;10368;51.436;6.774;2023-12-28T09:04:11;9.43;;;3.50;;
20417;SDS011;10368;51.436;6.774;2023-12-28T09:06:40;8.63;;;3.23;;
20417;SDS011;10368;51.436;6.774;2023-12-28T09:09:07;6.23;;;3.07;;
20417;SDS011;10368;51.436;6.774;2023-12-28T09:11:35;6.17;;;2.80;;
20417;SDS011;10368;51.436;6.774;2023-12-28T09:14:02;8.90;;;3.10;;
20417;SDS011;10368;51.436;6.774;2023-12-28T09:16:29;13.77;;;3.47;;
20417;SDS011;10368;51.436;6.774;2023-12-28T09:18:56;7.47;;;3.27;;
20417;SDS011;10368;51.436;6.774;2023-12-28T09:21:23;6.97;;;3.43;;
20417;SDS011;10368;51.436;6.774;2023-12-28T09:23:51;11.97;;;3.20;;
20417;SDS011;10368;51.436;6.774;2023-12-28T09:26:19;6.17;;;2.77;;
20417;SDS011;10368;51.436;6.774;2023-12-28T09:28:46;8.07;;;2.93;;
20417;SDS011;10368;51.436;6.774;2023-12-28T09:31:12;13.40;;;3.60;;
20417;SDS011;10368;51.436;6.774;2023-12-28T09:33:40;7.63;;;3.33;;
20417;SDS011;10368;51.436;6.774;2023-12-28T09:36:07;8.60;;;3.70;;
20417;SDS011;10368;51.436;6.774;2023-12-28T09:38:35;11.17;;;3.20;;
20417;SDS011;10368;51.436;6.774;2023-12-28T09:41:06;11.77;;;2.73;;
20417;SDS011;10368;51.436;6.774;2023-12-28T09:44:07;8.13;;;3.30;;
20417;SDS011;10368;51.436;6.774;2023-12-28T09:46:40;10.10;;;2.47;;
20417;SDS011;10368;51.436;6.774;2023-12-28T09:49:09;10.73;;;3.03;;
20417;SDS011;10368;51.436;6.774;2023-12-28T09:51:37;13.47;;;3.27;;
20417;SDS011;10368;51.436;6.774;2023-12-28T09:54:06;12.70;;;3.63;;
20417;SDS011;10368;51.436;6.774;2023-12-28T09:56:33;12.20;;;3.23;;
20417;SDS011;10368;51.436;6.774;2023-12-28T09:59:01;11.27;;;2.70;;
20417;SDS011;10368;51.436;6.774;2023-12-28T10:01:33;9.47;;;2.40;;
20417;SDS011;10368;51.436;6.774;2023-12-28T10:04:01;9.87;;;2.73;;
20417;SDS011;10368;51.436;6.774;2023-12-28T10:06:31;7.80;;;3.73;;
20417;SDS011;10368;51.436;6.774;2023-12-28T10:08:58;11.20;;;2.80;;
20417;SDS011;10368;51.436;6.774;2023-12-28T10:11:25;5.23;;;2.53;;
20417;SDS011;10368;51.436;6.774;2023-12-28T10:13:53;10.53;;;2.37;;
20417;SDS011;10368;51.436;6.774;2023-12-28T10:16:20;11.67;;;2.37;;
20417;SDS011;10368;51.436;6.774;2023-12-28T10:18:47;12.90;;;3.53;;
20417;SDS011;10368;51.436;6.774;2023-12-28T10:21:14;9.67;;;2.63;;
20417;SDS011;10368;51.436;6.774;2023-12-28T10:23:41;11.70;;;3.63;;
20417;SDS011;10368;51.436;6.774;2023-12-28T10:26:09;12.07;;;3.37;;
20417;SDS011;10368;51.436;6.774;2023-12-28T10:28:36;10.93;;;2.10;;
20417;SDS011;10368;51.436;6.774;2023-12-28T10:31:07;9.23;;;2.67;;
20417;SDS011;10368;51.436;6.774;2023-12-28T10:33:35;8.03;;;2.33;;
20417;SDS011;10368;51.436;6.774;2023-12-28T10:36:07;7.37;;;2.37;;
20417;SDS011;10368;51.436;6.774;2023-12-28T10:38:36;7.90;;;2.33;;
20417;SDS011;10368;51.436;6.774;2023-12-28T10:41:04;8.00;;;2.30;;
20417;SDS011;10368;51.436;6.774;2023-12-28T10:43:45;8.17;;;3.63;;
20417;SDS011;10368;51.436;6.774;2023-12-28T10:46:24;7.43;;;2.33;;
20417;SDS011;10368;51.436;6.774;2023-12-28T10:49:05;10.13;;;2.90;;
20417;SDS011;10368;51.436;6.774;2023-12-28T10:51:34;6.40;;;2.10;;
20417;SDS011;10368;51.436;6.774;2023-12-28T10:56:54;9.77;;;2.73;;
20417;SDS011;10368;51.436;6.774;2023-12-28T11:02:52;9.57;;;2.47;;
20417;SDS011;10368;51.436;6.774;2023-12-28T11:05:22;5.27;;;2.57;;
20417;SDS011;10368;51.436;6.774;2023-12-28T11:07:50;9.37;;;2.20;;
20417;SDS011;10368;51.436;6.774;2023-12-28T11:10:22;15.37;;;2.97;;
20417;SDS011;10368;51.436;6.774;2023-12-28T11:12:51;8.07;;;2.20;;
20417;SDS011;10368;51.436;6.774;2023-12-28T11:15:19;14.50;;;2.50;;
20417;SDS011;10368;51.436;6.774;2023-12-28T11:17:50;10.53;;;2.67;;
20417;SDS011;10368;51.436;6.774;2023-12-28T11:20:17;6.37;;;2.80;;
20417;SDS011;10368;51.436;6.774;2023-12-28T11:22:45;4.00;;;1.50;;
20417;SDS011;10368;51.436;6.774;2023-12-28T11:25:14;7.83;;;2.00;;
20417;SDS011;10368;51.436;6.774;2023-12-28T11:27:45;6.17;;;2.20;;
20417;SDS011;10368;51.436;6.774;2023-12-28T11:30:13;8.80;;;3.93;;
20417;SDS011;10368;51.436;6.774;2023-12-28T11:32:41;12.00;;;2.97;;
20417;SDS011;10368;51.436;6.774;2023-12-28T11:35:11;9.37;;;4.07;;
20417;SDS011;10368;51.436;6.774;2023-12-28T11:37:45;7.23;;;2.53;;
20417;SDS011;10368;51.436;6.774;2023-12-28T11:40:19;7.10;;;2.30;;
20417;SDS011;10368;51.436;6.774;2023-12-28T11:42:51;4.73;;;1.93;;
20417;SDS011;10368;51.436;6.774;2023-12-28T11:45:20;9.07;;;1.60;;
20417;SDS011;10368;51.436;6.774;2023-12-28T11:47:59;7.37;;;2.40;;
20417;SDS011;10368;51.436;6.774;2023-12-28T11:50:27;6.00;;;1.90;;
20417;SDS011;10368;51.436;6.774;2023-12-28T11:52:54;5.70;;;2.03;;
20417;SDS011;10368;51.436;6.774;2023-12-28T11:55:21;8.90;;;2.53;;
20417;SDS011;10368;51.436;6.774;2023-12-28T11:57:49;7.67;;;1.80;;
20417;SDS011;10368;51.436;6.774;2023-12-28T12:00:17;4.93;;;1.90;;
20417;SDS011;10368;51.436;6.774;2023-12-28T12:02:44;22.13;;;4.27;;
20417;SDS011;10368;51.436;6.774;2023-12-28T12:05:14;8.33;;;2.10;;
20417;SDS011;10368;51.436;6.774;2023-12-28T12:07:41;11.13;;;1.87;;
20417;SDS011;10368;51.436;6.774;2023-12-28T12:10:13;6.53;;;2.00;;
20417;SDS011;10368;51.436;6.774;2023-12-28T12:12:41;6.60;;;2.30;;
20417;SDS011;10368;51.436;6.774;2023-12-28T12:15:09;7.53;;;2.57;;
20417;SDS011;10368;51.436;6.774;2023-12-28T12:17:36;12.57;;;5.20;;
20417;SDS011;10368;51.436;6.774;2023-12-28T12:20:04;7.97;;;2.67;;
20417;SDS011;10368;51.436;6.774;2023-12-28T12:22:32;9.60;;;3.20;;
20417;SDS011;10368;51.436;6.774;2023-12-28T12:24:59;8.40;;;4.40;;
20417;SDS011;10368;51.436;6.774;2023-12-28T12:27:30;8.50;;;2.97;;
20417;SDS011;10368;51.436;6.774;2023-12-28T12:29:57;7.63;;;3.17;;
20417;SDS011;10368;51.436;6.774;2023-12-28T12:32:24;7.80;;;1.90;;
20417;SDS011;10368;51.436;6.774;2023-12-28T12:34:53;9.27;;;2.40;;
20417;SDS011;10368;51.436;6.774;2023-12-28T12:37:20;6.70;;;2.53;;
20417;SDS011;10368;51.436;6.774;2023-12-28T12:39:47;9.67;;;2.30;;
20417;SDS011;10368;51.436;6.774;2023-12-28T12:42:15;6.93;;;1.73;;
20417;SDS011;10368;51.436;6.774;2023-12-28T12:44:46;12.73;;;2.70;;
20417;SDS011;10368;51.436;6.774;2023-12-28T12:47:13;8.30;;;2.53;;
20417;SDS011;10368;51.436;6.774;2023-12-28T12:49:40;6.47;;;2.27;;
20417;SDS011;10368;51.436;6.774;2023-12-28T12:52:09;11.83;;;2.20;;
20417;SDS011;10368;51.436;6.774;2023-12-28T12:54:36;8.03;;;2.30;;
20417;SDS011;10368;51.436;6.774;2023-12-28T12:57:03;5.83;;;2.13;;
20417;SDS011;10368;51.436;6.774;2023-12-28T12:59:31;12.40;;;2.50;;
20417;SDS011;10368;51.436;6.774;2023-12-28T13:01:59;10.10;;;2.70;;
20417;SDS011;10368;51.436;6.774;2023-12-28T13:04:27;14.87;;;4.13;;
20417;SDS011;10368;51.436;6.774;2023-12-28T13:06:54;7.93;;;2.83;;
20417;SDS011;10368;51.436;6.774;2023-12-28T13:09:21;5.80;;;2.73;;
20417;SDS011;10368;51.436;6.774;2023-12-28T13:11:48;7.23;;;2.50;;
20417;SDS011;10368;51.436;6.774;2023-12-28T13:14:16;9.93;;;4.00;;
20417;SDS011;10368;51.436;6.774;2023-12-28T13:16:43;7.47;;;2.77;;
20417;SDS011;10368;51.436;6.774;2023-12-28T13:19:10;7.40;;;3.13;;
20417;SDS011;10368;51.436;6.774;2023-12-28T13:21:37;10.40;;;2.73;;
20417;SDS011;10368;51.436;6.774;2023-12-28T13:24:04;8.33;;;3.10;;
20417;SDS011;10368;51.436;6.774;2023-12-28T13:26:31;8.63;;;3.30;;
20417;SDS011;10368;51.436;6.774;2023-12-28T13:28:59;9.83;;;2.77;;
20417;SDS011;10368;51.436;6.774;2023-12-28T13:31:30;7.83;;;2.03;;
20417;SDS011;10368;51.436;6.774;2023-12-28T13:33:57;10.53;;;2.83;;
20417;SDS011;10368;51.436;6.774;2023-12-28T13:36:25;7.33;;;2.30;;
20417;SDS011;10368;51.436;6.774;2023-12-28T13:38:54;8.77;;;2.00;;
20417;SDS011;10368;51.436;6.774;2023-12-28T13:41:21;9.37;;;2.57;;
20417;SDS011;10368;51.436;6.774;2023-12-28T13:43:48;7.73;;;2.83;;
20417;SDS011;10368;51.436;6.774;2023-12-28T13:46:15;7.97;;;2.60;;
20417;SDS011;10368;51.436;6.774;2023-12-28T13:48:42;5.07;;;1.80;;
20417;SDS011;10368;51.436;6.774;2023-12-28T13:51:09;10.87;;;2.93;;
20417;SDS011;10368;51.436;6.774;2023-12-28T13:53:37;6.03;;;2.73;;
20417;SDS011;10368;51.436;6.774;2023-12-28T13:56:07;6.40;;;2.40;;
20417;SDS011;10368;51.436;6.774;2023-12-28T13:58:37;11.80;;;3.20;;
20417;SDS011;10368;51.436;6.774;2023-12-28T14:01:04;7.10;;;2.67;;
20417;SDS011;10368;51.436;6.774;2023-12-28T14:03:31;8.37;;;3.10;;
20417;SDS011;10368;51.436;6.774;2023-12-28T14:05:58;8.63;;;3.70;;
20417;SDS011;10368;51.436;6.774;2023-12-28T14:08:26;10.40;;;3.47;;
20417;SDS011;10368;51.436;6.774;2023-12-28T14:10:53;17.23;;;4.13;;
20417;SDS011;10368;51.436;6.774;2023-12-28T14:13:19;5.63;;;2.90;;
20417;SDS011;10368;51.436;6.774;2023-12-28T14:15:47;9.00;;;3.50;;
20417;SDS011;10368;51.436;6.774;2023-12-28T14:18:14;11.47;;;4.63;;
20417;SDS011;10368;51.436;6.774;2023-12-28T14:20:41;13.13;;;4.33;;
20417;SDS011;10368;51.436;6.774;2023-12-28T14:23:08;8.27;;;4.03;;
20417;SDS011;10368;51.436;6.774;2023-12-28T14:25:35;16.83;;;3.97;;
20417;SDS011;10368;51.436;6.774;2023-12-28T14:28:03;9.17;;;2.73;;
20417;SDS011;10368;51.436;6.774;2023-12-28T14:30:31;10.77;;;2.97;;
20417;SDS011;10368;51.436;6.774;2023-12-28T14:32:58;8.87;;;3.47;;
20417;SDS011;10368;51.436;6.774;2023-12-28T14:35:26;11.53;;;3.43;;
20417;SDS011;10368;51.436;6.774;2023-12-28T14:37:54;12.93;;;3.90;;
20417;SDS011;10368;51.436;6.774;2023-12-28T14:40:21;10.07;;;3.30;;
20417;SDS011;10368;51.436;6.774;2023-12-28T14:42:48;8.27;;;3.27;;
20417;SDS011;10368;51.436;6.774;2023-12-28T14:45:15;8.20;;;3.33;;
20417;SDS011;10368;51.436;6.774;2023-12-28T14:47:42;6.37;;;2.60;;
20417;SDS011;10368;51.436;6.774;2023-12-28T14:50:09;12.40;;;3.77;;
20417;SDS011;10368;51.436;6.774;2023-12-28T14:52:36;11.97;;;3.50;;
20417;SDS011;10368;51.436;6.774;2023-12-28T14:55:08;11.33;;;3.30;;
20417;SDS011;10368;51.436;6.774;2023-12-28T14:57:36;5.37;;;2.50;;
20417;SDS011;10368;51.436;6.774;2023-12-28T15:00:03;10.20;;;2.17;;
20417;SDS011;10368;51.436;6.774;2023-12-28T15:02:31;9.03;;;2.17;;